createdAt,value
2019-02-28T00:01:22.442Z,7.40
2019-02-28T00:03:51.393Z,7.40
2019-02-28T00:06:20.565Z,7.30
2019-02-28T00:08:51.075Z,7.30
2019-02-28T00:11:20.196Z,7.30
2019-02-28T00:13:49.144Z,7.20
2019-02-28T00:16:18.137Z,7.20
2019-02-28T00:18:49.472Z,7.20
2019-02-28T00:21:17.882Z,7.10
2019-02-28T00:23:46.889Z,7.10
2019-02-28T00:26:15.791Z,7.10
2019-02-28T00:28:44.631Z,7.10
2019-02-28T00:31:15.264Z,7.00
2019-02-28T00:33:44.846Z,7.00
2019-02-28T00:36:16.346Z,7.00
2019-02-28T00:38:44.880Z,7.00
2019-02-28T00:41:13.757Z,6.90
2019-02-28T00:43:42.667Z,6.90
2019-02-28T00:46:11.682Z,6.90
2019-02-28T00:48:40.597Z,6.80
2019-02-28T00:51:09.422Z,6.80
2019-02-28T00:53:38.425Z,6.80
2019-02-28T00:56:07.431Z,6.80
2019-02-28T00:58:36.245Z,6.70
2019-02-28T01:01:05.242Z,6.70
2019-02-28T01:03:34.066Z,6.70
2019-02-28T01:06:03.058Z,6.70
2019-02-28T01:08:31.874Z,6.60
2019-02-28T01:11:00.818Z,6.60
2019-02-28T01:13:29.753Z,6.60
2019-02-28T01:15:58.636Z,6.60
2019-02-28T01:18:27.491Z,6.60
2019-02-28T01:20:56.509Z,6.60
2019-02-28T01:23:34.642Z,6.50
2019-02-28T01:26:03.674Z,6.50
2019-02-28T01:28:32.538Z,6.50
2019-02-28T01:31:01.650Z,6.40
2019-02-28T01:33:30.518Z,6.40
2019-02-28T01:35:59.420Z,6.40
2019-02-28T01:38:28.318Z,6.40
2019-02-28T01:40:57.297Z,6.30
2019-02-28T01:43:28.773Z,6.30
2019-02-28T01:45:56.802Z,6.30
2019-02-28T01:48:25.730Z,6.30
2019-02-28T01:50:54.656Z,6.20
2019-02-28T01:53:23.543Z,6.20
2019-02-28T01:55:52.361Z,6.20
2019-02-28T01:58:21.222Z,6.20
2019-02-28T02:00:50.232Z,6.20
2019-02-28T02:03:19.050Z,6.20
2019-02-28T02:05:48.264Z,6.10
2019-02-28T02:08:18.730Z,6.10
2019-02-28T02:10:47.655Z,6.10
2019-02-28T02:13:16.534Z,6.10
2019-02-28T02:15:45.414Z,6.10
2019-02-28T02:18:14.334Z,6.00
2019-02-28T02:20:43.253Z,6.00
2019-02-28T02:23:12.130Z,6.00
2019-02-28T02:25:41.094Z,6.00
2019-02-28T02:28:10.066Z,6.00
2019-02-28T02:30:39.797Z,6.00
2019-02-28T02:33:14.075Z,6.00
2019-02-28T02:35:42.264Z,5.90
2019-02-28T02:38:09.743Z,5.90
2019-02-28T02:40:38.950Z,5.90
2019-02-28T02:43:07.965Z,5.90
2019-02-28T02:45:41.844Z,5.90
2019-02-28T02:48:07.389Z,5.90
2019-02-28T02:50:36.212Z,5.90
2019-02-28T02:53:06.433Z,5.80
2019-02-28T02:55:35.881Z,5.80
2019-02-28T02:58:04.862Z,5.80
2019-02-28T03:00:33.738Z,5.80
2019-02-28T03:03:06.132Z,5.80
2019-02-28T03:05:35.741Z,5.80
2019-02-28T03:08:04.063Z,5.80
2019-02-28T03:10:32.984Z,5.70
2019-02-28T03:13:04.923Z,5.70
2019-02-28T03:15:32.922Z,5.70
2019-02-28T03:18:01.740Z,5.70
2019-02-28T03:20:30.561Z,5.70
2019-02-28T03:23:02.168Z,5.70
2019-02-28T03:25:30.063Z,5.70
2019-02-28T03:27:58.976Z,5.60
2019-02-28T03:30:32.432Z,5.60
2019-02-28T03:32:58.610Z,5.60
2019-02-28T03:35:40.184Z,5.60
2019-02-28T03:37:58.241Z,5.60
2019-02-28T03:40:27.205Z,5.60
2019-02-28T03:42:56.203Z,5.60
2019-02-28T03:45:25.131Z,5.60
2019-02-28T03:47:58.360Z,5.60
2019-02-28T03:50:24.624Z,5.50
2019-02-28T03:52:53.458Z,5.50
2019-02-28T03:55:22.426Z,5.50
2019-02-28T03:57:51.351Z,5.50
2019-02-28T04:00:20.413Z,5.50
2019-02-28T04:02:56.604Z,5.50
2019-02-28T04:05:26.448Z,5.50
2019-02-28T04:07:53.593Z,5.50
2019-02-28T04:10:22.602Z,5.50
2019-02-28T04:12:51.809Z,5.50
2019-02-28T04:15:21.009Z,5.40
2019-02-28T04:17:49.978Z,5.40
2019-02-28T04:20:19.195Z,5.40
2019-02-28T04:22:48.166Z,5.40
2019-02-28T04:25:22.461Z,5.40
2019-02-28T04:27:47.879Z,5.40
2019-02-28T04:30:16.860Z,5.30
2019-02-28T04:32:45.662Z,5.30
2019-02-28T04:35:14.658Z,5.30
2019-02-28T04:37:46.470Z,5.30
2019-02-28T04:40:14.573Z,5.30
2019-02-28T04:42:43.409Z,5.30
2019-02-28T04:45:12.408Z,5.30
2019-02-28T04:47:41.766Z,5.30
2019-02-28T04:50:11.215Z,5.30
2019-02-28T04:52:40.176Z,5.30
2019-02-28T04:55:09.554Z,5.30
2019-02-28T04:57:38.434Z,5.30
2019-02-28T05:00:08.373Z,5.20
2019-02-28T05:02:37.263Z,5.20
2019-02-28T05:05:06.085Z,5.20
2019-02-28T05:07:35.064Z,5.20
2019-02-28T05:10:04.345Z,5.20
2019-02-28T05:12:36.137Z,5.20
2019-02-28T05:15:03.971Z,5.20
2019-02-28T05:17:32.957Z,5.20
2019-02-28T05:20:01.798Z,5.20
2019-02-28T05:22:30.722Z,5.20
2019-02-28T05:24:59.662Z,5.20
2019-02-28T05:27:34.963Z,5.10
2019-02-28T05:29:59.222Z,5.10
2019-02-28T05:32:28.030Z,5.10
2019-02-28T05:34:56.873Z,5.10
2019-02-28T05:37:25.805Z,5.10
2019-02-28T05:39:54.685Z,5.10
2019-02-28T05:42:24.121Z,5.10
2019-02-28T05:44:53.281Z,5.10
2019-02-28T05:47:22.164Z,5.10
2019-02-28T05:49:50.989Z,5.10
2019-02-28T05:52:19.876Z,5.10
2019-02-28T05:54:50.331Z,5.10
2019-02-28T05:57:19.658Z,5.10
2019-02-28T05:59:48.489Z,5.10
2019-02-28T06:02:18.936Z,5.10
2019-02-28T06:04:47.994Z,5.10
2019-02-28T06:07:16.984Z,5.10
2019-02-28T06:09:48.693Z,5.10
2019-02-28T06:12:16.456Z,5.10
2019-02-28T06:14:45.309Z,5.10
2019-02-28T06:17:14.246Z,5.10
2019-02-28T06:19:43.638Z,5.10
2019-02-28T06:22:13.158Z,5.10
2019-02-28T06:24:44.867Z,5.10
2019-02-28T06:27:12.654Z,5.10
2019-02-28T06:29:41.559Z,5.10
2019-02-28T06:32:10.450Z,5.10
2019-02-28T06:34:39.442Z,5.20
2019-02-28T06:37:09.984Z,5.20
2019-02-28T06:39:38.942Z,5.20
2019-02-28T06:42:07.749Z,5.20
2019-02-28T06:44:36.658Z,5.20
2019-02-28T06:47:05.475Z,5.20
2019-02-28T06:49:40.746Z,5.20
2019-02-28T06:52:05.155Z,5.20
2019-02-28T06:54:34.470Z,5.20
2019-02-28T06:57:03.396Z,5.20
2019-02-28T06:59:32.242Z,5.20
2019-02-28T07:02:01.151Z,5.20
2019-02-28T07:04:29.972Z,5.20
2019-02-28T07:06:58.816Z,5.20
2019-02-28T07:09:27.727Z,5.20
2019-02-28T07:11:56.848Z,5.20
2019-02-28T07:14:25.893Z,5.20
2019-02-28T07:16:55.208Z,5.20
2019-02-28T07:19:26.226Z,5.20
2019-02-28T07:21:54.714Z,5.30
2019-02-28T07:24:23.700Z,5.30
2019-02-28T07:26:53.090Z,5.30
2019-02-28T07:29:22.270Z,5.30
2019-02-28T07:31:51.180Z,5.30
2019-02-28T07:34:23.773Z,5.30
2019-02-28T07:36:50.791Z,5.30
2019-02-28T07:39:19.646Z,5.30
2019-02-28T07:41:48.634Z,5.30
2019-02-28T07:44:21.212Z,5.30
2019-02-28T07:46:48.126Z,5.30
2019-02-28T07:49:17.046Z,5.40
2019-02-28T07:51:45.943Z,5.40
2019-02-28T07:54:15.974Z,5.40
2019-02-28T07:56:45.401Z,5.40
2019-02-28T07:59:14.337Z,5.50
2019-02-28T08:01:43.138Z,5.50
2019-02-28T08:04:11.978Z,5.50
2019-02-28T08:06:40.894Z,5.50
2019-02-28T08:09:24.604Z,5.60
2019-02-28T08:11:55.702Z,5.60
2019-02-28T08:14:24.152Z,5.60
2019-02-28T08:16:53.226Z,5.70
2019-02-28T08:19:23.010Z,5.70
2019-02-28T08:21:52.834Z,5.70
2019-02-28T08:24:21.926Z,5.80
2019-02-28T08:26:53.583Z,5.80
2019-02-28T08:29:21.409Z,5.80
2019-02-28T08:31:50.292Z,5.90
2019-02-28T08:34:20.695Z,5.90
2019-02-28T08:36:49.946Z,5.90
2019-02-28T08:39:18.963Z,6.00
2019-02-28T08:41:49.592Z,6.00
2019-02-28T08:44:22.755Z,6.00
2019-02-28T08:46:49.039Z,6.10
2019-02-28T08:49:17.926Z,6.10
2019-02-28T08:51:46.830Z,6.20
2019-02-28T08:54:15.669Z,6.20
2019-02-28T08:56:46.163Z,6.30
2019-02-28T08:59:18.496Z,6.30
2019-02-28T09:01:45.802Z,6.40
2019-02-28T09:04:14.712Z,6.50
2019-02-28T09:06:43.560Z,6.50
2019-02-28T09:09:14.709Z,6.50
2019-02-28T09:11:44.171Z,6.60
2019-02-28T09:14:14.735Z,6.60
2019-02-28T09:16:44.005Z,6.70
2019-02-28T09:19:13.066Z,6.70
2019-02-28T09:21:42.039Z,6.80
2019-02-28T09:24:12.728Z,6.80
2019-02-28T09:26:41.662Z,6.90
2019-02-28T09:29:10.762Z,6.90
2019-02-28T09:31:39.836Z,7.00
2019-02-28T09:34:09.329Z,7.10
2019-02-28T09:36:38.435Z,7.10
2019-02-28T09:39:08.188Z,7.10
2019-02-28T09:41:40.205Z,7.20
2019-02-28T09:44:07.785Z,7.30
2019-02-28T09:46:36.702Z,7.30
2019-02-28T09:49:05.804Z,7.40
2019-02-28T09:51:34.929Z,7.40
2019-02-28T09:54:03.893Z,7.40
2019-02-28T09:56:32.918Z,7.50
2019-02-28T09:59:03.147Z,7.50
2019-02-28T10:01:32.469Z,7.60
2019-02-28T10:04:01.300Z,7.60
2019-02-28T10:06:30.140Z,7.60
2019-02-28T10:08:58.971Z,7.70
2019-02-28T10:11:31.186Z,7.70
2019-02-28T10:13:58.427Z,7.80
2019-02-28T10:16:27.398Z,7.80
2019-02-28T10:18:56.279Z,7.80
2019-02-28T10:21:25.442Z,7.90
2019-02-28T10:23:57.008Z,8.00
2019-02-28T10:26:25.102Z,8.00
2019-02-28T10:28:54.055Z,8.00
2019-02-28T10:31:35.205Z,8.10
2019-02-28T10:33:53.603Z,8.20
2019-02-28T10:36:22.734Z,8.20
2019-02-28T10:38:51.650Z,8.20
2019-02-28T10:41:20.512Z,8.30
2019-02-28T10:43:52.059Z,8.30
2019-02-28T10:46:20.296Z,8.40
2019-02-28T10:48:50.958Z,8.50
2019-02-28T10:51:20.085Z,8.50
2019-02-28T10:53:48.944Z,8.60
2019-02-28T10:56:17.873Z,8.60
2019-02-28T10:58:47.161Z,8.70
2019-02-28T11:01:18.010Z,8.80
2019-02-28T11:03:47.489Z,8.90
2019-02-28T11:06:16.462Z,8.90
2019-02-28T11:08:47.520Z,9.00
2019-02-28T11:11:16.374Z,9.10
2019-02-28T11:13:45.359Z,9.20
2019-02-28T11:16:14.313Z,9.30
2019-02-28T11:18:43.237Z,9.30
2019-02-28T11:21:12.673Z,9.40
2019-02-28T11:23:41.668Z,9.50
2019-02-28T11:26:10.696Z,9.60
2019-02-28T11:28:39.704Z,9.70
2019-02-28T11:31:11.090Z,9.80
2019-02-28T11:33:40.994Z,9.80
2019-02-28T11:36:09.843Z,9.90
2019-02-28T11:38:38.752Z,10.00
2019-02-28T11:41:07.737Z,10.10
2019-02-28T11:43:38.370Z,10.20
2019-02-28T11:46:08.211Z,10.30
2019-02-28T11:48:37.075Z,10.30
2019-02-28T11:51:05.898Z,10.40
2019-02-28T11:53:39.376Z,10.40
2019-02-28T11:56:05.577Z,10.60
2019-02-28T11:58:34.478Z,10.60
2019-02-28T12:01:03.882Z,10.70
2019-02-28T12:03:35.471Z,10.70
2019-02-28T12:06:03.401Z,10.80
2019-02-28T12:08:32.384Z,10.90
2019-02-28T12:11:01.865Z,10.90
2019-02-28T12:13:32.149Z,11.00
2019-02-28T12:16:01.058Z,11.10
2019-02-28T12:18:30.062Z,11.20
2019-02-28T12:21:01.763Z,11.20
2019-02-28T12:23:29.653Z,11.30
2019-02-28T12:25:58.716Z,11.30
2019-02-28T12:28:27.613Z,11.40
2019-02-28T12:30:57.217Z,11.40
2019-02-28T12:33:27.064Z,11.40
2019-02-28T12:35:56.111Z,11.50
2019-02-28T12:38:28.280Z,11.50
2019-02-28T12:40:56.188Z,11.50
2019-02-28T12:43:25.027Z,11.50
2019-02-28T12:45:56.933Z,11.60
2019-02-28T12:48:24.613Z,11.50
2019-02-28T12:50:53.495Z,11.60
2019-02-28T12:53:25.266Z,11.60
2019-02-28T12:55:53.273Z,11.60
2019-02-28T12:58:22.078Z,11.60
2019-02-28T13:00:51.373Z,11.60
2019-02-28T13:03:21.181Z,11.60
2019-02-28T13:05:50.160Z,11.60
2019-02-28T13:08:19.354Z,11.60
2019-02-28T13:10:48.310Z,11.70
2019-02-28T13:13:17.277Z,11.60
2019-02-28T13:15:46.830Z,11.60
2019-02-28T13:18:16.073Z,11.60
2019-02-28T13:20:44.971Z,11.60
2019-02-28T13:23:13.909Z,11.60
2019-02-28T13:25:42.821Z,11.60
2019-02-28T13:28:11.774Z,11.60
2019-02-28T13:30:45.084Z,11.60
2019-02-28T13:33:14.945Z,11.60
2019-02-28T13:35:47.137Z,11.60
2019-02-28T13:38:17.711Z,11.60
2019-02-28T13:40:44.699Z,11.60
2019-02-28T13:43:19.950Z,11.60
2019-02-28T13:45:44.560Z,11.60
2019-02-28T13:48:13.430Z,11.60
2019-02-28T13:50:42.350Z,11.60
2019-02-28T13:53:18.933Z,11.60
2019-02-28T13:55:41.954Z,11.60
2019-02-28T13:58:10.957Z,11.70
2019-02-28T14:00:44.274Z,11.70
2019-02-28T14:03:10.631Z,11.70
2019-02-28T14:05:41.450Z,11.70
2019-02-28T14:08:12.050Z,11.80
2019-02-28T14:10:41.746Z,11.80
2019-02-28T14:13:11.366Z,11.80
2019-02-28T14:15:42.224Z,11.80
2019-02-28T14:18:11.633Z,11.80
2019-02-28T14:20:41.028Z,11.80
2019-02-28T14:23:10.273Z,11.90
2019-02-28T14:25:39.685Z,11.90
2019-02-28T14:28:09.858Z,11.90
2019-02-28T14:30:38.791Z,11.90
2019-02-28T14:33:07.930Z,11.90
2019-02-28T14:35:38.641Z,11.90
2019-02-28T14:38:08.196Z,11.90
2019-02-28T14:40:37.131Z,11.90
2019-02-28T14:43:06.118Z,11.90
2019-02-28T14:45:35.519Z,12.00
2019-02-28T14:48:06.264Z,12.00
2019-02-28T14:50:35.167Z,12.00
2019-02-28T14:53:04.599Z,12.00
2019-02-28T14:55:33.713Z,12.00
2019-02-28T14:58:02.950Z,12.00
2019-02-28T15:00:32.231Z,12.00
2019-02-28T15:03:02.820Z,12.00
2019-02-28T15:05:32.017Z,12.00
2019-02-28T15:08:01.782Z,12.00
2019-02-28T15:10:34.178Z,12.00
2019-02-28T15:13:01.784Z,11.90
2019-02-28T15:15:30.690Z,11.90
2019-02-28T15:17:59.513Z,11.90
2019-02-28T15:20:31.784Z,11.90
2019-02-28T15:22:59.705Z,11.90
2019-02-28T15:25:28.649Z,11.90
2019-02-28T15:27:57.524Z,11.90
2019-02-28T15:30:30.429Z,11.90
2019-02-28T15:32:59.073Z,11.90
2019-02-28T15:35:28.138Z,11.90
2019-02-28T15:37:57.323Z,11.90
2019-02-28T15:40:28.840Z,11.90
2019-02-28T15:42:57.717Z,11.80
2019-02-28T15:45:27.003Z,11.80
2019-02-28T15:47:58.917Z,11.80
2019-02-28T15:50:27.697Z,11.80
2019-02-28T15:52:56.700Z,11.80
2019-02-28T15:55:26.017Z,11.80
2019-02-28T15:57:55.769Z,11.80
2019-02-28T16:00:28.540Z,11.80
2019-02-28T16:02:58.032Z,11.80
2019-02-28T16:05:27.732Z,11.70
2019-02-28T16:07:58.045Z,11.70
2019-02-28T16:10:31.928Z,11.70
2019-02-28T16:13:00.458Z,11.70
2019-02-28T16:15:29.770Z,11.70
2019-02-28T16:17:59.089Z,11.70
2019-02-28T16:20:28.459Z,11.70
2019-02-28T16:22:58.893Z,11.60
2019-02-28T16:25:29.692Z,11.60
2019-02-28T16:28:04.494Z,11.60
2019-02-28T16:30:33.821Z,11.60
2019-02-28T16:33:03.556Z,11.60
2019-02-28T16:35:32.623Z,11.60
2019-02-28T16:38:01.621Z,11.50
2019-02-28T16:40:30.638Z,11.50
2019-02-28T16:42:59.561Z,11.50
2019-02-28T16:45:31.357Z,11.50
2019-02-28T16:48:02.963Z,11.40
2019-02-28T16:50:32.453Z,11.40
2019-02-28T16:53:01.323Z,11.40
2019-02-28T16:55:31.076Z,11.40
2019-02-28T16:58:01.126Z,11.30
2019-02-28T17:00:30.319Z,11.30
2019-02-28T17:02:59.350Z,11.30
2019-02-28T17:05:28.582Z,11.30
2019-02-28T17:07:57.856Z,11.30
2019-02-28T17:10:32.078Z,11.30
2019-02-28T17:13:21.629Z,11.20
2019-02-28T17:16:02.613Z,11.20
2019-02-28T17:18:32.394Z,11.20
2019-02-28T17:21:01.316Z,11.10
2019-02-28T17:23:30.296Z,11.10
2019-02-28T17:25:59.379Z,11.10
2019-02-28T17:28:53.358Z,11.10
2019-02-28T17:31:31.400Z,11.00
2019-02-28T17:34:00.358Z,11.00
2019-02-28T17:36:29.430Z,11.00
2019-02-28T17:38:58.410Z,11.00
2019-02-28T17:41:27.453Z,10.90
2019-02-28T17:44:40.090Z,10.90
2019-02-28T17:47:44.724Z,10.90
2019-02-28T17:50:30.150Z,10.90
2019-02-28T17:53:24.224Z,10.80
2019-02-28T17:56:34.332Z,10.80
2019-02-28T17:59:36.158Z,10.80
2019-02-28T18:02:24.097Z,10.80
2019-02-28T18:05:30.190Z,10.70
2019-02-28T18:08:03.626Z,10.70
2019-02-28T18:10:49.261Z,10.70
2019-02-28T18:13:23.485Z,10.70
2019-02-28T18:16:27.606Z,10.70
2019-02-28T18:19:43.719Z,10.60
2019-02-28T18:22:40.105Z,10.60
2019-02-28T18:25:31.642Z,10.60
2019-02-28T18:28:46.578Z,10.60
2019-02-28T18:31:19.238Z,10.50
2019-02-28T18:34:10.059Z,10.50
2019-02-28T18:36:40.172Z,10.50
2019-02-28T18:39:11.592Z,10.50
2019-02-28T18:41:42.297Z,10.50
2019-02-28T18:44:11.347Z,10.50
2019-02-28T18:46:40.303Z,10.40
2019-02-28T18:49:09.337Z,10.40
2019-02-28T18:51:38.210Z,10.40
2019-02-28T18:54:07.097Z,10.40
2019-02-28T18:56:36.052Z,10.40
2019-02-28T18:59:05.178Z,10.40
2019-02-28T19:01:34.085Z,10.30
2019-02-28T19:04:03.467Z,10.30
2019-02-28T19:06:32.320Z,10.30
2019-02-28T19:09:01.407Z,10.30
2019-02-28T19:11:30.495Z,10.30
2019-02-28T19:13:59.372Z,10.30
2019-02-28T19:16:28.279Z,10.30
2019-02-28T19:18:57.102Z,10.30
2019-02-28T19:21:25.938Z,10.20
2019-02-28T19:23:54.937Z,10.20
2019-02-28T19:26:23.858Z,10.20
2019-02-28T19:28:52.704Z,10.20
2019-02-28T19:31:21.595Z,10.20
2019-02-28T19:33:50.471Z,10.20
2019-02-28T19:36:19.319Z,10.20
2019-02-28T19:38:48.214Z,10.20
2019-02-28T19:41:17.243Z,10.10
2019-02-28T19:43:46.169Z,10.10
2019-02-28T19:46:15.180Z,10.10
2019-02-28T19:48:44.167Z,10.10
2019-02-28T19:51:13.096Z,10.10
2019-02-28T19:53:42.032Z,10.10
2019-02-28T19:56:10.958Z,10.10
2019-02-28T19:58:39.827Z,10.10
2019-02-28T20:01:08.810Z,10.10
2019-02-28T20:03:37.783Z,10.10
2019-02-28T20:06:06.818Z,10.00
2019-02-28T20:08:35.978Z,10.00
2019-02-28T20:11:05.184Z,10.00
2019-02-28T20:13:34.080Z,10.00
2019-02-28T20:16:03.127Z,10.00
2019-02-28T20:18:32.013Z,10.00
2019-02-28T20:21:01.161Z,10.00
2019-02-28T20:23:30.193Z,10.00
2019-02-28T20:25:59.381Z,9.90
2019-02-28T20:28:28.301Z,9.90
2019-02-28T20:30:57.238Z,9.90
2019-02-28T20:33:26.226Z,9.90
2019-02-28T20:35:55.125Z,9.90
2019-02-28T20:38:23.978Z,9.90
2019-02-28T20:40:53.414Z,9.90
2019-02-28T20:43:22.358Z,9.90
2019-02-28T20:45:51.483Z,9.90
2019-02-28T20:48:20.385Z,9.80
2019-02-28T20:50:49.334Z,9.80
2019-02-28T20:53:18.259Z,9.80
2019-02-28T20:55:47.481Z,9.80
2019-02-28T20:58:16.532Z,9.80
2019-02-28T21:00:45.544Z,9.80
2019-02-28T21:03:14.506Z,9.80
2019-02-28T21:05:43.646Z,9.80
2019-02-28T21:08:12.699Z,9.80
2019-02-28T21:10:44.395Z,9.70
2019-02-28T21:13:13.374Z,9.70
2019-02-28T21:15:42.290Z,9.70
2019-02-28T21:18:11.192Z,9.70
2019-02-28T21:20:40.066Z,9.70
2019-02-28T21:23:08.922Z,9.70
2019-02-28T21:25:38.003Z,9.70
2019-02-28T21:28:07.054Z,9.70
2019-02-28T21:30:36.037Z,9.70
2019-02-28T21:33:05.181Z,9.70
2019-02-28T21:35:34.201Z,9.70
2019-02-28T21:38:03.306Z,9.70
2019-02-28T21:40:32.280Z,9.60
2019-02-28T21:43:01.208Z,9.60
2019-02-28T21:45:30.274Z,9.60
2019-02-28T21:47:59.259Z,9.60
2019-02-28T21:50:28.173Z,9.60
2019-02-28T21:52:57.127Z,9.60
2019-02-28T21:55:26.101Z,9.60
2019-02-28T21:57:55.063Z,9.60
2019-02-28T22:00:24.432Z,9.60
2019-02-28T22:02:53.433Z,9.50
2019-02-28T22:05:22.423Z,9.50
2019-02-28T22:07:51.405Z,9.50
2019-02-28T22:10:20.405Z,9.50
2019-02-28T22:12:49.331Z,9.50
2019-02-28T22:15:18.630Z,9.50
2019-02-28T22:17:47.677Z,9.50
2019-02-28T22:20:16.703Z,9.50
2019-02-28T22:22:45.713Z,9.50
2019-02-28T22:25:15.067Z,9.50
2019-02-28T22:27:43.959Z,9.50
2019-02-28T22:30:48.338Z,9.50
2019-02-28T22:33:25.242Z,9.50
2019-02-28T22:35:55.792Z,9.50
2019-02-28T22:38:24.703Z,9.40
2019-02-28T22:40:53.689Z,9.40
2019-02-28T22:43:22.559Z,9.40
2019-02-28T22:45:51.591Z,9.40
2019-02-28T22:48:20.571Z,9.40
2019-02-28T22:50:49.461Z,9.40
2019-02-28T22:53:18.458Z,9.40
2019-02-28T22:55:47.402Z,9.40
2019-02-28T22:58:16.359Z,9.40
2019-02-28T23:01:06.876Z,9.40
2019-02-28T23:03:36.070Z,9.40
2019-02-28T23:06:05.358Z,9.30
2019-02-28T23:08:34.425Z,9.40
2019-02-28T23:11:03.418Z,9.30
2019-02-28T23:13:32.364Z,9.30
2019-02-28T23:16:01.350Z,9.30
2019-02-28T23:18:30.157Z,9.30
2019-02-28T23:20:59.041Z,9.30
2019-02-28T23:23:27.866Z,9.30
2019-02-28T23:26:06.347Z,9.30
2019-02-28T23:28:37.397Z,9.30
2019-02-28T23:32:11.550Z,9.30
2019-02-28T23:34:46.699Z,9.30
2019-02-28T23:37:15.840Z,9.30
2019-02-28T23:39:45.139Z,9.30
2019-02-28T23:42:14.155Z,9.30
2019-02-28T23:44:43.124Z,9.30
2019-02-28T23:47:11.961Z,9.30
2019-02-28T23:49:40.768Z,9.20
2019-02-28T23:52:09.659Z,9.20
2019-02-28T23:54:38.533Z,9.20
2019-02-28T23:57:07.509Z,9.20
2019-02-28T23:59:36.314Z,9.20
